Perdido Key, Florida
Current Conditions -  °F | °C
As of 3:56 PM on Thursday 18 Dec 2014 (Local Time) from KNPA Reporting Station
Broken Clouds Broken Clouds  
Wind Chill: 59°   Ceiling: 12000
Heat Index: 59°   Visibility: 10mi
Dew Point: 45°   Wind: 3mph
Humidity: 60%   Direction: 210°SSW
Pressure: 30.12"   Gusts: NA
Location:  30.3544°N, 87.355°W
Report Text: KNPA 182156Z 21003KT 10SM BKN120 BKN250 15/07 A3012 RMK AO2 SLP202 T01500072
Loading
Personal Weather Stations






























Interactive Weather Map New forecast layout! Learn more

10-Day Weather Forecast

Advertisements
Track Severe Weather on mobile